Strona główna
METAR-TAF:

METAR-TAF

Lotnisko :

Martinsburg, Wirginia Zachodnia, Stany Zjednoczone

Szerokość geograficzna: 39-24-07N, Długość geograficzna: 077-59-04W, wysokość: 170 m

Aktualna obserwacja pogody

Raport powstał 35 minut temu, godzina 19:53 UTC
Wiatr 12 kt od południe w porywach dochodzący do 21 kt
Temperatura 31°C
Wilgotność 55%
Ciśnienie 1012 hPa
Widzialność: 16.1 km
bezchmurnie

METAR: KMRB 191953Z AUTO 17012G21KT 10SM CLR 31/21 A2987 RMK AO2 LTG DSNT N AND NE SLP108 T03110211

czas: 16:28 (20:28 UTC)

Prognoza

Raport powstał 31 minut temu, godzina 19:57 UTC
Prognoza ważna od 19 godzina 20 UTC do 20 godzina 18 UTC
Wiatr 12 kt od południe w porywach dochodzący do 21 kt
Widzialność: 10 km
Rozproszone chmury na wysokości 4000 ft, Cumulonimbus.
burza w pobliże
Od 20 godzina 0300 UTC
Wiatr 7 kt od południe
Widzialność: 10 km
Przerywane chmury na wysokości 6000 ft

TAF: KMRB 191957Z 1920/2018 17012G21KT P6SM VCTS SCT040CB FM200300 19007KT P6SM BKN060

Obserwacja i prognoza pogody dla ponad 4000 lotnisk (raport METAR i TAF).

Dostępne stacje oznaczono żółtymi i czerwonymi punktami na mapie.

Najedź kursorem aby zobaczyć nazwę stacji.

Kliknij aby zobaczyć obserwacje i prognozy pogody.

Aby zmienić mapę: kliknij na zielony przycisk z czarnym krzyżykiem, aby powiększyć; na zielony przycisk z myślnikiem, aby pomniejszyć; na zielone strzałki, aby przejść do map sąsiednich.


METAR-TAF: